createdAt,value
2022-09-05T05:39:11.719Z,14.73
2022-09-05T05:59:14.197Z,15.66
2022-09-05T06:19:17.842Z,16.47
2022-09-05T06:39:20.842Z,16.93
2022-09-05T06:59:23.301Z,16.82
2022-09-05T07:19:28.501Z,16.73
2022-09-05T07:39:31.041Z,17.12
2022-09-05T07:59:33.494Z,17.67
2022-09-05T08:19:36.418Z,17.98
2022-09-05T08:39:39.203Z,18.58
2022-09-05T09:00:04.309Z,19.79
2022-09-05T09:20:07.291Z,20.86
2022-09-05T09:40:10.512Z,21.61
2022-09-05T10:00:13.141Z,22.06
2022-09-05T10:20:16.246Z,22.77
2022-09-05T10:40:18.893Z,23.16
2022-09-05T11:02:23.157Z,24.14
2022-09-05T11:20:44.397Z,22.08
2022-09-05T11:41:02.738Z,21.91
2022-09-05T12:01:41.932Z,22.71
2022-09-05T12:21:32.828Z,23.64
2022-09-05T12:42:14.519Z,22.34
2022-09-05T13:03:11.485Z,21.98
2022-09-05T13:22:31.360Z,22.15
2022-09-05T13:42:33.834Z,22.28
2022-09-05T14:03:29.945Z,22.30
2022-09-05T14:22:59.679Z,23.15
2022-09-05T14:43:02.916Z,21.24
2022-09-05T15:03:06.421Z,21.82
2022-09-05T15:23:16.264Z,21.54
2022-09-05T15:43:21.124Z,21.60
2022-09-05T16:06:44.120Z,20.81
2022-09-05T16:23:47.388Z,20.46
2022-09-05T16:43:50.144Z,20.01
2022-09-05T17:03:53.176Z,19.52
2022-09-05T17:29:16.321Z,18.89
2022-09-05T17:44:20.744Z,18.16
2022-09-05T18:04:23.171Z,17.66
2022-09-05T18:24:32.668Z,17.44
2022-09-05T18:44:36.243Z,17.15
2022-09-05T19:24:55.370Z,16.78
2022-09-05T19:47:38.171Z,16.43
2022-09-05T20:05:31.132Z,16.16
2022-09-05T20:25:37.899Z,16.35
2022-09-05T20:45:40.817Z,15.76
2022-09-05T21:05:46.842Z,15.20
2022-09-05T21:25:54.684Z,14.69
2022-09-05T21:47:49.014Z,14.30
2022-09-05T22:06:21.976Z,13.79
2022-09-05T22:26:26.628Z,13.67
2022-09-05T22:46:29.297Z,13.44
2022-09-05T23:06:42.303Z,13.14
2022-09-05T23:26:48.851Z,12.68
2022-09-05T23:46:51.400Z,12.43
